Observations
| Time | Sensor | AQI | SAQ | Temp °C | Hum % | Pres Pa | CO μg/m³ | H₂S μg/m³ | NO μg/m³ | NO₂ μg/m³ | O₃ μg/m³ | SO₂ μg/m³ | CO₂e PPM | VOC PPM | PM1 μg/m³ | PM2.5 μg/m³ | PM4 μg/m³ | PM10 μg/m³ | TPS µm |
|---|---|---|---|---|---|---|---|---|---|---|---|---|---|---|---|---|---|---|---|
| Tuesday 11 August 2026 | |||||||||||||||||||
| 18:38 | Trim Patrick St | 3 | 35.4 | 23 | 69,620 | 0 | 27.44 | 0.54 | 16.13 | 84.29 | 28.88 | 4.57 | 10.56 | 11.61 | |||||
| 18:37 | Trim Market St | 3 | 31.3 | 26 | 66,319 | 0 | 18.51 | 0.5 | 29.04 | 65.07 | 0 | 1.43 | 5.12 | 5.63 | |||||
| 18:37 | Trim Patrick St | 3 | 35.6 | 23 | 69,612 | 0 | 27.83 | 0.59 | 15.95 | 90.1 | 28.21 | 4.57 | 11.39 | 12.53 | |||||
| 18:36 | Trim Market St | 3 | 31.3 | 26 | 66,331 | 0 | 16.58 | 0.49 | 25.71 | 66.58 | 0 | 1.43 | 4.57 | 5.03 | |||||
| 18:36 | Trim Patrick St | 3 | 35.8 | 23 | 69,628 | 0 | 27.27 | 0.53 | 16.53 | 81.51 | 28.5 | 3.71 | 10.58 | 11.64 | |||||
| 18:35 | Trim Patrick St | 3 | 35.9 | 23 | 69,648 | 0 | 28.29 | 0.53 | 15.3 | 107.8 | 28.78 | 3.71 | 10.57 | 11.63 | |||||
| 18:34 | Trim Market St | 3 | 31.4 | 26 | 66,345 | 0 | 20.71 | 0.47 | 26.88 | 63.72 | 0 | 2.14 | 6.22 | 6.85 | |||||
| 18:34 | Trim Patrick St | 3 | 36.1 | 23 | 69,669 | 0 | 27.43 | 0.44 | 19.05 | 110.26 | 28.36 | 4.57 | 12.23 | 13.45 | |||||
| 18:33 | Trim Patrick St | 3 | 36.3 | 22 | 69,671 | 0 | 23.11 | 0.5 | 15.22 | 72.81 | 27.3 | 5.43 | 12.26 | 13.49 | |||||
| 18:32 | Trim Market St | 3 | 31.5 | 26 | 66,353 | 0 | 19.6 | 0.47 | 23.82 | 65.39 | 0 | 2.14 | 6.24 | 6.63 | |||||
| 18:32 | Trim Patrick St | 3 | 36.5 | 22 | 69,669 | 0 | 35.45 | 0.49 | 19.53 | 115.36 | 29.52 | 4.57 | 12.27 | 13.5 | |||||
| 18:31 | Trim Patrick St | 3 | 36.7 | 22 | 69,697 | 0 | 25.91 | 0.45 | 16.47 | 89.65 | 28.91 | 3.71 | 10.66 | 11.73 | |||||
| 18:30 | Trim Market St | 3 | 31.6 | 26 | 66,374 | 0 | 17.42 | 0.48 | 23.37 | 64.12 | 0 | 2.85 | 6.25 | 6.87 | |||||
| 18:30 | Trim Patrick St | 3 | 36.9 | 22 | 69,703 | 0 | 15.85 | 0.38 | 15.7 | 116.6 | 29.02 | 3.71 | 10.67 | 11.73 | |||||
| 18:29 | Trim Market St | 3 | 31.7 | 26 | 66,368 | 0 | 17.87 | 0.47 | 30.28 | 60.34 | 0 | 2.85 | 5.7 | 6.27 | |||||
| 18:29 | Trim Patrick St | 3 | 37.1 | 22 | 69,713 | 0 | 13.37 | 0.27 | 14.81 | 88.75 | 28.53 | 3.71 | 10.66 | 11.73 | |||||
| 18:28 | Trim Patrick St | 3 | 37.3 | 21 | 69,719 | 0 | 4.16 | 0.25 | 15.04 | 70.7 | 25.67 | 3.71 | 11.51 | 12.66 | |||||
| 18:27 | Trim Patrick St | 3 | 37.4 | 22 | 69,728 | 0 | 10.13 | 0.23 | 18.33 | 69.33 | 26.1 | 4.57 | 11.51 | 12.66 | |||||
| 18:26 | Trim Patrick St | 3 | 37.6 | 22 | 69,738 | 0 | 13.71 | 0.24 | 16.43 | 107.76 | 29.08 | 4.57 | 11.5 | 12.65 | |||||
| 18:25 | Trim Patrick St | 3 | 37.8 | 22 | 69,748 | 0 | 8.59 | 0.22 | 14.68 | 83.66 | 29.28 | 4.57 | 12.33 | 13.56 | |||||